createdAt,value
2019-01-20T00:00:27.547Z,-5.68
2019-01-20T00:03:00.580Z,-5.72
2019-01-20T00:05:32.350Z,-5.72
2019-01-20T00:08:03.869Z,-5.81
2019-01-20T00:10:35.285Z,-6.18
2019-01-20T00:13:07.052Z,-6.03
2019-01-20T00:15:38.484Z,-5.90
2019-01-20T00:18:09.928Z,-5.84
2019-01-20T00:20:41.327Z,-6.04
2019-01-20T00:23:12.776Z,-6.44
2019-01-20T00:25:44.215Z,-6.11
2019-01-20T00:28:15.667Z,-6.20
2019-01-20T00:30:47.093Z,-6.37
2019-01-20T00:33:18.564Z,-5.98
2019-01-20T00:35:50.069Z,-6.19
2019-01-20T00:38:21.816Z,-6.22
2019-01-20T00:40:53.232Z,-6.49
2019-01-20T00:43:24.697Z,-6.59
2019-01-20T00:45:56.106Z,-6.63
2019-01-20T00:48:27.574Z,-6.61
2019-01-20T00:50:59.012Z,-6.81
2019-01-20T00:53:30.540Z,-6.60
2019-01-20T00:56:01.957Z,-6.40
2019-01-20T00:58:33.426Z,-6.58
2019-01-20T01:01:04.958Z,-6.54
2019-01-20T01:03:36.431Z,-6.49
2019-01-20T01:06:07.878Z,-6.59
2019-01-20T01:08:39.322Z,-6.49
2019-01-20T01:11:10.740Z,-6.76
2019-01-20T01:13:42.295Z,-6.55
2019-01-20T01:16:14.712Z,-6.79
2019-01-20T01:18:46.168Z,-6.72
2019-01-20T01:21:17.579Z,-6.58
2019-01-20T01:23:49.119Z,-6.37
2019-01-20T01:26:20.543Z,-6.38
2019-01-20T01:28:52.003Z,-6.73
2019-01-20T01:31:23.426Z,-6.75
2019-01-20T01:33:54.886Z,-6.90
2019-01-20T01:36:26.323Z,-6.66
2019-01-20T01:38:59.120Z,-6.69
2019-01-20T01:41:30.587Z,-6.58
2019-01-20T01:44:03.015Z,-6.46
2019-01-20T01:46:34.440Z,-6.46
2019-01-20T01:49:05.888Z,-6.47
2019-01-20T01:51:37.312Z,-6.57
2019-01-20T01:54:08.747Z,-6.71
2019-01-20T01:56:40.187Z,-6.75
2019-01-20T01:59:11.689Z,-6.73
2019-01-20T02:01:43.092Z,-6.80
2019-01-20T02:04:14.656Z,-6.67
2019-01-20T02:06:46.091Z,-6.53
2019-01-20T02:09:17.555Z,-6.67
2019-01-20T02:11:48.974Z,-6.62
2019-01-20T02:14:20.601Z,-6.70
2019-01-20T02:16:52.060Z,-6.69
2019-01-20T02:19:23.587Z,-6.80
2019-01-20T02:21:55.012Z,-6.72
2019-01-20T02:24:28.083Z,-6.80
2019-01-20T02:26:59.562Z,-6.72
2019-01-20T02:29:31.007Z,-6.86
2019-01-20T02:32:02.528Z,-6.77
2019-01-20T02:34:33.985Z,-6.68
2019-01-20T02:37:05.651Z,-6.74
2019-01-20T02:39:37.105Z,-6.77
2019-01-20T02:42:08.558Z,-6.88
2019-01-20T02:44:40.020Z,-7.06
2019-01-20T02:47:11.439Z,-6.87
2019-01-20T02:49:42.901Z,-6.74
2019-01-20T02:52:14.397Z,-6.89
2019-01-20T02:54:45.783Z,-6.86
2019-01-20T02:57:17.187Z,-6.80
2019-01-20T02:59:48.633Z,-6.69
2019-01-20T03:02:20.067Z,-6.69
2019-01-20T03:04:51.563Z,-6.83
2019-01-20T03:07:22.966Z,-6.88
2019-01-20T03:09:54.478Z,-6.78
2019-01-20T03:12:25.911Z,-6.96
2019-01-20T03:14:58.329Z,-6.79
2019-01-20T03:17:29.747Z,-7.14
2019-01-20T03:20:01.241Z,-6.83
2019-01-20T03:22:32.679Z,-6.94
2019-01-20T03:25:04.328Z,-6.87
2019-01-20T03:27:35.767Z,-7.35
2019-01-20T03:30:11.801Z,-7.15
2019-01-20T03:32:43.217Z,-7.29
2019-01-20T03:35:17.263Z,-7.32
2019-01-20T03:37:48.790Z,-7.44
2019-01-20T03:40:20.451Z,-7.26
2019-01-20T03:42:51.876Z,-7.41
2019-01-20T03:45:23.573Z,-7.25
2019-01-20T03:47:55.001Z,-7.17
2019-01-20T03:50:26.451Z,-7.39
2019-01-20T03:52:57.861Z,-7.41
2019-01-20T03:55:29.324Z,-7.59
2019-01-20T03:58:00.766Z,-7.48
2019-01-20T04:00:32.227Z,-7.78
2019-01-20T04:03:04.163Z,-7.45
2019-01-20T04:05:35.606Z,-7.45
2019-01-20T04:08:07.097Z,-7.41
2019-01-20T04:10:38.537Z,-7.57
2019-01-20T04:13:10.026Z,-8.05
2019-01-20T04:15:41.489Z,-7.58
2019-01-20T04:18:12.947Z,-7.55
2019-01-20T04:20:44.395Z,-7.63
2019-01-20T04:23:15.826Z,-7.57
2019-01-20T04:25:48.579Z,-7.87
2019-01-20T04:28:20.005Z,-7.78
2019-01-20T04:30:51.495Z,-7.71
2019-01-20T04:33:25.717Z,-8.11
2019-01-20T04:35:57.083Z,-8.09
2019-01-20T04:38:28.492Z,-7.69
2019-01-20T04:40:59.970Z,-7.76
2019-01-20T04:43:31.476Z,-7.78
2019-01-20T04:46:04.710Z,-7.65
2019-01-20T04:48:36.120Z,-7.54
2019-01-20T04:51:07.572Z,-7.58
2019-01-20T04:53:39.576Z,-7.70
2019-01-20T04:56:11.078Z,-7.65
2019-01-20T04:58:42.606Z,-7.51
2019-01-20T05:01:14.089Z,-7.55
2019-01-20T05:03:45.531Z,-7.65
2019-01-20T05:06:16.926Z,-7.45
2019-01-20T05:08:48.401Z,-7.63
2019-01-20T05:11:19.843Z,-7.43
2019-01-20T05:13:51.256Z,-7.93
2019-01-20T05:16:22.639Z,-7.49
2019-01-20T05:18:54.061Z,-7.67
2019-01-20T05:21:25.538Z,-7.64
2019-01-20T05:23:56.968Z,-7.70
2019-01-20T05:26:29.396Z,-7.88
2019-01-20T05:29:00.760Z,-7.53
2019-01-20T05:31:32.228Z,-7.72
2019-01-20T05:34:03.752Z,-7.38
2019-01-20T05:36:35.224Z,-7.83
2019-01-20T05:39:09.269Z,-7.47
2019-01-20T05:41:40.724Z,-7.59
2019-01-20T05:44:12.159Z,-7.51
2019-01-20T05:46:45.991Z,-7.47
2019-01-20T05:49:17.444Z,-7.52
2019-01-20T05:51:48.887Z,-7.57
2019-01-20T05:54:21.213Z,-7.50
2019-01-20T05:56:52.578Z,-7.56
2019-01-20T05:59:23.964Z,-7.60
2019-01-20T06:01:55.463Z,-7.58
2019-01-20T06:04:26.902Z,-7.83
2019-01-20T06:06:58.372Z,-7.76
2019-01-20T06:09:29.803Z,-7.73
2019-01-20T06:12:01.259Z,-7.56
2019-01-20T06:14:32.686Z,-7.87
2019-01-20T06:17:04.176Z,-8.09
2019-01-20T06:19:35.599Z,-7.76
2019-01-20T06:22:07.062Z,-8.04
2019-01-20T06:24:38.482Z,-7.86
2019-01-20T06:27:09.959Z,-7.89
2019-01-20T06:29:41.412Z,-7.61
2019-01-20T06:32:12.863Z,-7.86
2019-01-20T06:34:44.286Z,-7.82
2019-01-20T06:37:15.766Z,-7.71
2019-01-20T06:39:47.388Z,-7.78
2019-01-20T06:42:18.838Z,-7.87
2019-01-20T06:44:50.273Z,-7.63
2019-01-20T06:47:21.712Z,-7.62
2019-01-20T06:49:53.138Z,-7.79
2019-01-20T06:52:24.612Z,-7.73
2019-01-20T06:54:56.035Z,-7.65
2019-01-20T06:57:27.523Z,-7.63
2019-01-20T07:00:03.062Z,-7.79
2019-01-20T07:02:34.682Z,-7.61
2019-01-20T07:05:06.852Z,-7.33
2019-01-20T07:07:38.400Z,-7.51
2019-01-20T07:10:11.143Z,-7.52
2019-01-20T07:12:42.612Z,-7.66
2019-01-20T07:15:24.976Z,-7.34
2019-01-20T07:17:56.501Z,-7.34
2019-01-20T07:20:27.934Z,-7.37
2019-01-20T07:22:59.304Z,-7.68
2019-01-20T07:25:30.772Z,-7.47
2019-01-20T07:28:02.234Z,-7.21
2019-01-20T07:30:33.692Z,-7.09
2019-01-20T07:33:05.718Z,-6.87
2019-01-20T07:35:37.210Z,-6.71
2019-01-20T07:38:08.684Z,-6.89
2019-01-20T07:40:40.172Z,-6.98
2019-01-20T07:43:16.719Z,-6.62
2019-01-20T07:45:44.773Z,-6.94
2019-01-20T07:48:16.269Z,-6.52
2019-01-20T07:50:47.892Z,-6.34
2019-01-20T07:53:19.332Z,-6.40
2019-01-20T07:55:51.064Z,-6.25
2019-01-20T07:58:22.509Z,-6.15
2019-01-20T08:00:53.950Z,-6.27
2019-01-20T08:03:25.388Z,-6.23
2019-01-20T08:05:56.854Z,-6.22
2019-01-20T08:08:28.301Z,-6.11
2019-01-20T08:10:59.778Z,-5.83
2019-01-20T08:13:31.238Z,-5.83
2019-01-20T08:16:02.742Z,-5.55
2019-01-20T08:18:34.203Z,-5.55
2019-01-20T08:21:05.675Z,-5.72
2019-01-20T08:23:37.159Z,-5.49
2019-01-20T08:26:08.582Z,-5.18
2019-01-20T08:28:40.043Z,-5.15
2019-01-20T08:31:11.469Z,-4.98
2019-01-20T08:33:42.851Z,-5.00
2019-01-20T08:36:14.304Z,-4.78
2019-01-20T08:38:45.876Z,-4.55
2019-01-20T08:41:17.344Z,-4.61
2019-01-20T08:43:48.843Z,-4.31
2019-01-20T08:46:37.130Z,-4.10
2019-01-20T08:49:10.287Z,-3.97
2019-01-20T08:51:43.335Z,-3.87
2019-01-20T08:54:14.821Z,-3.88
2019-01-20T08:56:46.239Z,-3.59
2019-01-20T08:59:17.721Z,-3.37
2019-01-20T09:01:49.270Z,-3.60
2019-01-20T09:04:21.343Z,-3.65
2019-01-20T09:06:52.748Z,-3.65
2019-01-20T09:09:24.253Z,-3.38
2019-01-20T09:11:55.699Z,-2.98
2019-01-20T09:14:27.078Z,-3.35
2019-01-20T09:16:58.518Z,-3.05
2019-01-20T09:19:34.052Z,-3.01
2019-01-20T09:22:05.997Z,-3.05
2019-01-20T09:24:37.550Z,-2.74
2019-01-20T09:27:08.986Z,-2.72
2019-01-20T09:29:43.492Z,-2.61
2019-01-20T09:32:14.908Z,-2.57
2019-01-20T09:34:46.369Z,-2.20
2019-01-20T09:37:17.826Z,-2.49
2019-01-20T09:39:49.299Z,-1.97
2019-01-20T09:42:21.718Z,-1.09
2019-01-20T09:44:53.167Z,-1.32
2019-01-20T09:47:24.670Z,-0.63
2019-01-20T09:49:56.164Z,-0.68
2019-01-20T09:52:27.601Z,-1.16
2019-01-20T09:54:59.071Z,-0.95
2019-01-20T09:57:31.392Z,-1.25
2019-01-20T10:00:03.606Z,-0.99
2019-01-20T10:02:35.131Z,-1.11
2019-01-20T10:05:07.444Z,-1.33
2019-01-20T10:07:38.936Z,-1.39
2019-01-20T10:10:13.766Z,-1.25
2019-01-20T10:12:45.214Z,-1.15
2019-01-20T10:15:16.969Z,-1.10
2019-01-20T10:17:48.436Z,-0.91
2019-01-20T10:20:23.431Z,-0.97
2019-01-20T10:22:54.816Z,-0.90
2019-01-20T10:25:26.280Z,-0.74
2019-01-20T10:27:57.833Z,-0.55
2019-01-20T10:30:37.171Z,-0.34
2019-01-20T10:33:08.645Z,-0.43
2019-01-20T10:35:51.258Z,-0.74
2019-01-20T10:38:22.787Z,-0.71
2019-01-20T10:40:54.255Z,-0.69
2019-01-20T10:43:25.672Z,-0.55
2019-01-20T10:45:57.195Z,-0.58
2019-01-20T10:48:28.635Z,-0.21
2019-01-20T10:51:02.071Z,-0.14
2019-01-20T10:53:36.727Z,-0.42
2019-01-20T10:56:08.262Z,-0.48
2019-01-20T10:58:42.517Z,-0.15
2019-01-20T11:01:15.639Z,-0.35
2019-01-20T11:03:49.867Z,-0.07
2019-01-20T11:06:21.363Z,-0.13
2019-01-20T11:08:52.836Z,-0.41
2019-01-20T11:11:24.315Z,-0.18
2019-01-20T11:13:57.431Z,-0.03
2019-01-20T11:16:28.921Z,-0.16
2019-01-20T11:19:00.368Z,-0.02
2019-01-20T11:21:31.857Z,0.01
2019-01-20T11:24:03.292Z,0.12
2019-01-20T11:26:34.965Z,0.12
2019-01-20T11:29:09.363Z,0.02
2019-01-20T11:31:40.877Z,0.12
2019-01-20T11:34:12.316Z,0.07
2019-01-20T11:36:43.935Z,-0.14
2019-01-20T11:39:15.349Z,0.22
2019-01-20T11:41:48.395Z,0.15
2019-01-20T11:44:19.819Z,0.20
2019-01-20T11:46:51.281Z,0.04
2019-01-20T11:49:22.729Z,0.33
2019-01-20T11:52:01.298Z,0.31
2019-01-20T11:54:30.003Z,0.23
2019-01-20T11:57:01.430Z,0.28
2019-01-20T11:59:32.876Z,0.21
2019-01-20T12:02:06.825Z,0.03
2019-01-20T12:04:47.983Z,0.39
2019-01-20T12:07:19.454Z,0.03
2019-01-20T12:09:53.837Z,0.18
2019-01-20T12:12:26.963Z,0.25
2019-01-20T12:14:59.164Z,0.09
2019-01-20T12:17:30.807Z,0.00
2019-01-20T12:20:02.296Z,0.11
2019-01-20T12:22:33.747Z,0.30
2019-01-20T12:25:07.180Z,0.42
2019-01-20T12:27:41.761Z,0.27
2019-01-20T12:30:18.022Z,-0.08
2019-01-20T12:32:50.451Z,0.13
2019-01-20T12:35:21.921Z,0.32
2019-01-20T12:37:53.399Z,0.09
2019-01-20T12:40:35.510Z,0.11
2019-01-20T12:43:06.964Z,0.13
2019-01-20T12:45:38.389Z,0.08
2019-01-20T12:48:14.126Z,0.04
2019-01-20T12:50:45.634Z,0.44
2019-01-20T12:53:17.103Z,0.37
2019-01-20T12:55:48.534Z,0.30
2019-01-20T12:58:19.984Z,0.21
2019-01-20T13:00:56.843Z,0.23
2019-01-20T13:03:29.273Z,0.21
2019-01-20T13:06:02.342Z,0.19
2019-01-20T13:08:33.931Z,-0.03
2019-01-20T13:11:05.588Z,0.10
2019-01-20T13:13:37.031Z,0.20
2019-01-20T13:16:08.465Z,0.18
2019-01-20T13:18:39.929Z,0.36
2019-01-20T13:21:11.493Z,0.12
2019-01-20T13:23:42.947Z,0.10
2019-01-20T13:26:14.362Z,0.07
2019-01-20T13:28:45.813Z,0.02
2019-01-20T13:31:17.206Z,-0.04
2019-01-20T13:33:48.651Z,0.05
2019-01-20T13:36:20.078Z,0.13
2019-01-20T13:38:51.553Z,0.07
2019-01-20T13:41:32.057Z,0.34
2019-01-20T13:44:03.528Z,0.25
2019-01-20T13:46:34.978Z,0.27
2019-01-20T13:49:06.543Z,-0.05
2019-01-20T13:51:37.959Z,0.10
2019-01-20T13:54:11.437Z,0.29
2019-01-20T13:56:42.779Z,0.14
2019-01-20T13:59:14.249Z,0.03
2019-01-20T14:01:45.694Z,0.16
2019-01-20T14:04:17.213Z,-0.01
2019-01-20T14:06:48.712Z,0.03
2019-01-20T14:09:20.172Z,-0.26
2019-01-20T14:11:51.688Z,0.06
2019-01-20T14:14:23.134Z,0.28
2019-01-20T14:16:54.594Z,0.03
2019-01-20T14:19:26.061Z,0.07
2019-01-20T14:21:57.490Z,0.02
2019-01-20T14:24:28.965Z,-0.37
2019-01-20T14:27:00.404Z,-0.28
2019-01-20T14:29:31.938Z,-0.23
2019-01-20T14:32:03.441Z,-0.16
2019-01-20T14:34:34.919Z,-0.30
2019-01-20T14:37:06.367Z,-0.13
2019-01-20T14:39:37.820Z,0.04
2019-01-20T14:42:09.309Z,-0.17
2019-01-20T14:44:40.763Z,0.19
2019-01-20T14:47:12.217Z,0.11
2019-01-20T14:49:43.683Z,0.24
2019-01-20T14:52:15.074Z,0.44
2019-01-20T14:54:46.570Z,0.07
2019-01-20T14:57:17.995Z,0.44
2019-01-20T14:59:49.374Z,0.16
2019-01-20T15:02:20.816Z,0.41
2019-01-20T15:04:52.441Z,0.46
2019-01-20T15:07:23.901Z,0.24
2019-01-20T15:09:55.466Z,-0.07
2019-01-20T15:12:26.846Z,-0.19
2019-01-20T15:14:58.308Z,-0.12
2019-01-20T15:17:29.755Z,0.17
2019-01-20T15:20:01.256Z,0.20
2019-01-20T15:22:32.713Z,0.36
2019-01-20T15:25:04.606Z,0.56
2019-01-20T15:27:36.043Z,0.38
2019-01-20T15:30:15.684Z,0.16
2019-01-20T15:32:47.195Z,0.49
2019-01-20T15:35:18.646Z,0.52
2019-01-20T15:37:50.121Z,0.32
2019-01-20T15:40:21.995Z,0.36
2019-01-20T15:42:53.429Z,0.48
2019-01-20T15:45:25.533Z,0.39
2019-01-20T15:47:56.944Z,0.31
2019-01-20T15:50:31.022Z,0.40
2019-01-20T15:53:02.469Z,0.48
2019-01-20T15:55:33.974Z,0.31
2019-01-20T15:58:05.440Z,0.37
2019-01-20T16:00:36.881Z,0.17
2019-01-20T16:03:08.472Z,0.27
2019-01-20T16:05:39.916Z,0.08
2019-01-20T16:08:11.967Z,0.12
2019-01-20T16:10:43.488Z,0.15
2019-01-20T16:13:14.914Z,0.22
2019-01-20T16:15:46.354Z,0.24
2019-01-20T16:18:17.795Z,0.27
2019-01-20T16:20:49.292Z,0.18
2019-01-20T16:23:20.706Z,0.22
2019-01-20T16:25:52.180Z,-0.14
2019-01-20T16:28:23.623Z,0.13
2019-01-20T16:30:55.109Z,-0.01
2019-01-20T16:33:26.533Z,-0.09
2019-01-20T16:35:57.920Z,0.06
2019-01-20T16:38:29.354Z,0.09
2019-01-20T16:41:02.601Z,0.20
2019-01-20T16:43:34.001Z,0.20
2019-01-20T16:46:05.470Z,0.24
2019-01-20T16:48:36.886Z,0.04
2019-01-20T16:51:08.345Z,-0.03
2019-01-20T16:53:39.772Z,0.07
2019-01-20T16:56:11.219Z,0.18
2019-01-20T16:58:42.643Z,0.23
2019-01-20T17:01:14.107Z,0.13
2019-01-20T17:03:45.545Z,0.10
2019-01-20T17:06:17.048Z,0.11
2019-01-20T17:08:48.475Z,-0.07
2019-01-20T17:11:19.835Z,-0.31
2019-01-20T17:13:51.269Z,-0.37
2019-01-20T17:16:22.713Z,-0.19
2019-01-20T17:18:54.358Z,-0.35
2019-01-20T17:21:25.845Z,-0.43
2019-01-20T17:23:57.279Z,-0.51
2019-01-20T17:26:28.757Z,-0.23
2019-01-20T17:29:00.199Z,-0.38
2019-01-20T17:31:31.669Z,-0.39
2019-01-20T17:34:03.103Z,-0.43
2019-01-20T17:36:34.591Z,-0.48
2019-01-20T17:39:11.986Z,-0.35
2019-01-20T17:41:42.902Z,-0.37
2019-01-20T17:44:14.345Z,-0.29
2019-01-20T17:46:45.803Z,-0.49
2019-01-20T17:49:17.247Z,-0.43
2019-01-20T17:51:48.756Z,-0.36
2019-01-20T17:54:20.196Z,-0.45
2019-01-20T17:56:51.674Z,-0.16
2019-01-20T17:59:23.100Z,0.03
2019-01-20T18:01:54.576Z,-0.13
2019-01-20T18:04:26.014Z,-0.22
2019-01-20T18:06:57.511Z,-0.19
2019-01-20T18:09:28.944Z,-0.23
2019-01-20T18:12:00.441Z,-0.49
2019-01-20T18:14:31.881Z,-0.13
2019-01-20T18:17:03.386Z,-0.15
2019-01-20T18:19:34.796Z,0.00
2019-01-20T18:22:06.269Z,-0.29
2019-01-20T18:24:37.726Z,-0.19
2019-01-20T18:27:09.196Z,-0.25
2019-01-20T18:29:43.657Z,-0.24
2019-01-20T18:32:15.105Z,-0.40
2019-01-20T18:34:46.546Z,-0.26
2019-01-20T18:37:18.011Z,-0.27
2019-01-20T18:39:49.433Z,-0.31
2019-01-20T18:42:20.905Z,-0.34
2019-01-20T18:44:52.405Z,-0.35
2019-01-20T18:47:23.790Z,-0.23
2019-01-20T18:49:55.246Z,-0.59
2019-01-20T18:52:26.756Z,-0.49
2019-01-20T18:54:58.204Z,-0.26
2019-01-20T18:57:29.848Z,-0.43
2019-01-20T19:00:01.313Z,-0.46
2019-01-20T19:02:34.388Z,-0.24
2019-01-20T19:05:10.187Z,-0.25
2019-01-20T19:07:42.014Z,-0.28
2019-01-20T19:10:15.129Z,-0.20
2019-01-20T19:12:46.836Z,-0.25
2019-01-20T19:15:19.470Z,-0.32
2019-01-20T19:17:51.022Z,-0.43
2019-01-20T19:20:23.699Z,-0.48
2019-01-20T19:22:56.614Z,-0.61
2019-01-20T19:25:28.525Z,-0.75
2019-01-20T19:28:00.104Z,-0.48
2019-01-20T19:30:34.153Z,-0.89
2019-01-20T19:33:07.715Z,-0.79
2019-01-20T19:35:39.807Z,-0.64
2019-01-20T19:38:11.681Z,-0.89
2019-01-20T19:40:43.704Z,-0.74
2019-01-20T19:43:15.911Z,-0.80
2019-01-20T19:45:47.882Z,-0.61
2019-01-20T19:48:20.390Z,-0.72
2019-01-20T19:50:52.226Z,-0.53
2019-01-20T19:53:23.678Z,-0.64
2019-01-20T19:55:55.141Z,-0.91
2019-01-20T19:58:26.648Z,-0.68
2019-01-20T20:00:58.116Z,-0.61
2019-01-20T20:03:29.532Z,-0.88
2019-01-20T20:06:00.990Z,-0.74
2019-01-20T20:08:32.582Z,-0.72
2019-01-20T20:11:04.010Z,-0.58
2019-01-20T20:13:35.498Z,-0.97
2019-01-20T20:16:06.962Z,-0.83
2019-01-20T20:18:38.453Z,-0.83
2019-01-20T20:21:09.894Z,-1.09
2019-01-20T20:23:41.363Z,-0.92
2019-01-20T20:26:12.874Z,-0.94
2019-01-20T20:28:44.362Z,-0.76
2019-01-20T20:31:15.878Z,-0.75
2019-01-20T20:33:47.264Z,-0.85
2019-01-20T20:36:18.716Z,-1.21
2019-01-20T20:38:50.191Z,-1.06
2019-01-20T20:41:21.667Z,-0.98
2019-01-20T20:43:53.132Z,-0.88
2019-01-20T20:46:30.504Z,-0.96
2019-01-20T20:48:57.750Z,-0.97
2019-01-20T20:51:29.187Z,-0.93
2019-01-20T20:54:00.649Z,-1.13
2019-01-20T20:56:32.103Z,-1.03
2019-01-20T20:59:03.582Z,-1.17
2019-01-20T21:01:35.077Z,-1.03
2019-01-20T21:04:06.543Z,-0.97
2019-01-20T21:06:38.001Z,-1.02
2019-01-20T21:09:10.867Z,-1.27
2019-01-20T21:11:42.391Z,-1.15
2019-01-20T21:14:13.878Z,-1.04
2019-01-20T21:16:45.321Z,-1.00
2019-01-20T21:19:16.865Z,-0.88
2019-01-20T21:21:48.310Z,-0.87
2019-01-20T21:24:19.815Z,-0.93
2019-01-20T21:26:51.264Z,-0.88
2019-01-20T21:29:23.719Z,-0.80
2019-01-20T21:31:55.165Z,-1.02
2019-01-20T21:34:26.626Z,-1.06
2019-01-20T21:36:58.067Z,-0.94
2019-01-20T21:39:29.568Z,-0.85
2019-01-20T21:42:00.991Z,-1.12
2019-01-20T21:44:32.391Z,-0.98
2019-01-20T21:47:03.836Z,-0.98
2019-01-20T21:49:35.299Z,-0.90
2019-01-20T21:52:06.784Z,-0.84
2019-01-20T21:54:38.229Z,-0.92
2019-01-20T21:57:09.666Z,-0.78
2019-01-20T21:59:41.173Z,-0.85
2019-01-20T22:02:12.623Z,-0.80
2019-01-20T22:04:44.101Z,-0.95
2019-01-20T22:07:15.459Z,-0.78
2019-01-20T22:09:47.022Z,-1.01
2019-01-20T22:12:18.504Z,-0.91
2019-01-20T22:14:49.933Z,-0.93
2019-01-20T22:17:21.378Z,-1.15
2019-01-20T22:19:52.850Z,-0.89
2019-01-20T22:22:24.318Z,-0.58
2019-01-20T22:24:55.764Z,-0.78
2019-01-20T22:27:27.215Z,-0.79
2019-01-20T22:29:58.681Z,-0.76
2019-01-20T22:32:30.117Z,-0.87
2019-01-20T22:35:01.612Z,-0.96
2019-01-20T22:37:33.047Z,-0.99
2019-01-20T22:40:05.126Z,-1.05
2019-01-20T22:42:36.543Z,-0.75
2019-01-20T22:45:10.095Z,-1.17
2019-01-20T22:47:41.511Z,-1.16
2019-01-20T22:50:13.637Z,-0.90
2019-01-20T22:52:45.133Z,-1.26
2019-01-20T22:55:16.835Z,-1.12
2019-01-20T22:57:48.277Z,-0.94
2019-01-20T23:01:02.683Z,-0.89
2019-01-20T23:03:34.369Z,-0.98
2019-01-20T23:06:05.829Z,-0.80
2019-01-20T23:08:37.233Z,-0.76
2019-01-20T23:11:08.690Z,-0.73
2019-01-20T23:13:41.120Z,-0.76
2019-01-20T23:16:12.722Z,-0.81
2019-01-20T23:18:44.173Z,-0.79
2019-01-20T23:21:15.611Z,-0.99
2019-01-20T23:23:47.109Z,-1.39
2019-01-20T23:26:18.552Z,-1.08
2019-01-20T23:28:50.094Z,-0.84
2019-01-20T23:31:21.531Z,-1.04
2019-01-20T23:33:52.956Z,-1.16
2019-01-20T23:36:24.420Z,-0.92
2019-01-20T23:38:55.871Z,-1.05
2019-01-20T23:41:27.378Z,-1.50
2019-01-20T23:43:58.814Z,-1.29
2019-01-20T23:46:30.319Z,-0.92
2019-01-20T23:49:01.739Z,-1.24
2019-01-20T23:51:33.208Z,-0.78
2019-01-20T23:54:04.656Z,-0.85
2019-01-20T23:56:36.120Z,-0.70
2019-01-20T23:59:07.550Z,-1.18
